Time;durP1;ratioP1;P1;durP2;ratioP2;P2;SDS_P1;SDS_P2;PMS_P1;PMS_P2;Temp;Humidity;BMP_temperature;BMP_pressure;BME280_temperature;BME280_humidity;BME280_pressure;Samples;Min_cycle;Max_cycle;Signal;HPM_P1;HPM_P2
2022/11/18 00:01:22;;;;;;;27.58;21.80;;;7.00;99.90;;;;;;5057210;28;20120;-66
2022/11/18 00:03:48;;;;;;;25.77;21.85;;;7.00;99.90;;;;;;5041875;28;20055;-67
2022/11/18 00:06:16;;;;;;;33.58;24.73;;;7.00;99.90;;;;;;5058923;28;20039;-66
2022/11/18 00:08:42;;;;;;;30.52;23.83;;;7.10;99.90;;;;;;5057344;28;20472;-66
2022/11/18 00:16:42;;;;;;;39.20;26.60;;;7.10;99.90;;;;;;5064148;28;20396;-67
2022/11/18 00:19:08;;;;;;;40.53;27.23;;;7.10;99.90;;;;;;5058888;28;20048;-67
2022/11/18 00:21:34;;;;;;;39.55;27.77;;;7.20;99.90;;;;;;5047662;28;20053;-67
2022/11/18 00:23:59;;;;;;;40.47;27.45;;;7.20;99.90;;;;;;5059131;28;20037;-67
2022/11/18 00:26:25;;;;;;;31.90;24.83;;;7.20;99.90;;;;;;5068281;28;20103;-67
2022/11/18 00:28:51;;;;;;;38.95;28.30;;;7.20;99.90;;;;;;5064082;28;20412;-67
2022/11/18 00:31:16;;;;;;;53.65;29.45;;;7.20;99.90;;;;;;5046427;28;20099;-67
2022/11/18 00:33:42;;;;;;;51.75;31.27;;;7.20;99.90;;;;;;5061190;28;20445;-66
2022/11/18 00:36:10;;;;;;;60.35;30.20;;;7.20;99.90;;;;;;5049694;28;20049;-67
2022/11/18 00:38:37;;;;;;;48.53;29.65;;;7.20;99.90;;;;;;5062040;28;20048;-67
2022/11/18 00:41:13;;;;;;;57.47;31.05;;;7.20;99.90;;;;;;5061498;28;20388;-66
2022/11/18 00:43:39;;;;;;;59.28;31.48;;;7.30;99.90;;;;;;5060659;28;20071;-66
2022/11/18 00:46:07;;;;;;;78.85;35.13;;;7.20;99.90;;;;;;5055167;28;20033;-67
2022/11/18 00:48:33;;;;;;;54.28;31.42;;;7.20;99.90;;;;;;5059601;28;20045;-67
2022/11/18 00:51:13;;;;;;;56.08;31.20;;;7.20;99.90;;;;;;5060939;28;20506;-67
2022/11/18 00:53:39;;;;;;;76.55;35.00;;;7.20;99.90;;;;;;5045789;28;20397;-66
2022/11/18 00:56:06;;;;;;;57.88;29.50;;;7.30;99.90;;;;;;5061298;28;20087;-67
2022/11/18 00:58:32;;;;;;;65.68;32.10;;;7.30;99.90;;;;;;5061474;28;20051;-67
2022/11/18 01:00:58;;;;;;;65.45;31.75;;;7.20;99.90;;;;;;5030321;28;20047;-66
2022/11/18 01:03:24;;;;;;;74.95;32.45;;;7.30;99.90;;;;;;5061673;28;20040;-67
2022/11/18 01:05:50;;;;;;;77.07;34.83;;;7.30;99.90;;;;;;5057220;28;20040;-67
2022/11/18 01:08:18;;;;;;;49.60;29.92;;;7.30;99.90;;;;;;5058765;28;20114;-67
2022/11/18 01:10:44;;;;;;;70.03;34.05;;;7.30;99.90;;;;;;5046693;28;20028;-67
2022/11/18 01:13:18;;;;;;;64.82;32.97;;;7.30;99.90;;;;;;5058086;28;20037;-67
2022/11/18 01:15:53;;;;;;;72.80;33.87;;;7.30;99.90;;;;;;5039615;28;20072;-67
2022/11/18 01:18:22;;;;;;;61.78;32.50;;;7.30;99.90;;;;;;5059610;28;20153;-68
2022/11/18 01:20:48;;;;;;;69.97;34.95;;;7.30;99.90;;;;;;5055909;28;20045;-67
2022/11/18 01:23:14;;;;;;;88.05;36.58;;;7.30;99.90;;;;;;5060833;28;20041;-66
2022/11/18 01:25:42;;;;;;;69.85;35.10;;;7.30;99.90;;;;;;5060831;28;20029;-67
2022/11/18 01:28:08;;;;;;;99.00;37.60;;;7.30;99.90;;;;;;5062471;28;20715;-67
2022/11/18 01:30:36;;;;;;;81.85;35.97;;;7.30;99.90;;;;;;5056277;28;20036;-67
2022/11/18 01:33:03;;;;;;;82.72;36.47;;;7.30;99.90;;;;;;5057127;28;20048;-66
2022/11/18 01:35:40;;;;;;;67.80;34.28;;;7.30;99.90;;;;;;5040592;28;20045;-66
2022/11/18 01:38:07;;;;;;;72.32;35.03;;;7.30;99.90;;;;;;5064530;28;20055;-67
2022/11/18 01:40:34;;;;;;;59.13;31.98;;;7.30;99.90;;;;;;5039342;28;20065;-67
2022/11/18 01:43:01;;;;;;;74.78;34.90;;;7.40;99.90;;;;;;5061310;28;20495;-66
2022/11/18 01:45:33;;;;;;;80.90;35.75;;;7.30;99.90;;;;;;5059725;28;20492;-67
2022/11/18 01:48:10;;;;;;;82.72;36.85;;;7.30;99.90;;;;;;5063631;28;20048;-67
2022/11/18 01:50:42;;;;;;;71.78;35.08;;;7.30;99.90;;;;;;5059653;28;20094;-67
2022/11/18 01:53:22;;;;;;;71.90;35.88;;;7.30;99.90;;;;;;5047648;28;20496;-66
2022/11/18 01:55:51;;;;;;;68.28;33.90;;;7.40;99.90;;;;;;5040664;28;20052;-67
2022/11/18 01:58:24;;;;;;;93.00;38.67;;;7.40;99.90;;;;;;5043758;28;20082;-67
2022/11/18 02:00:50;;;;;;;89.63;38.15;;;7.30;99.90;;;;;;5057725;28;20461;-67
2022/11/18 02:03:16;;;;;;;77.45;35.63;;;7.40;99.90;;;;;;5055872;28;20039;-67
2022/11/18 02:05:45;;;;;;;80.43;37.13;;;7.30;99.90;;;;;;5059185;28;20025;-66
2022/11/18 02:08:11;;;;;;;74.68;35.30;;;7.40;99.90;;;;;;5060870;28;20542;-67
2022/11/18 02:10:37;;;;;;;81.15;37.60;;;7.30;99.90;;;;;;5057190;28;20384;-67
2022/11/18 02:13:03;;;;;;;61.35;34.20;;;7.40;99.90;;;;;;5041422;28;20040;-66
2022/11/18 02:16:04;;;;;;;89.70;39.30;;;7.30;99.90;;;;;;5061555;28;20446;-66
2022/11/18 02:19:01;;;;;;;55.47;33.00;;;7.40;99.90;;;;;;5059526;28;20058;-67
2022/11/18 02:21:54;;;;;;;80.05;36.70;;;7.40;99.90;;;;;;5051868;28;20044;-67
2022/11/18 02:24:57;;;;;;;62.25;34.22;;;7.30;99.90;;;;;;5029395;28;20124;-66
2022/11/18 02:27:45;;;;;;;69.65;35.53;;;7.30;99.90;;;;;;5041559;28;20049;-67
2022/11/18 02:30:14;;;;;;;67.82;34.97;;;7.30;99.90;;;;;;5047917;28;20040;-66
2022/11/18 02:32:47;;;;;;;60.03;33.85;;;7.30;99.90;;;;;;5056355;28;20115;-66
2022/11/18 02:35:26;;;;;;;67.40;35.80;;;7.30;99.90;;;;;;5059431;28;20080;-67
2022/11/18 02:38:03;;;;;;;55.17;31.40;;;7.30;99.90;;;;;;5059041;28;20044;-67
2022/11/18 02:40:42;;;;;;;68.72;35.05;;;7.40;99.90;;;;;;5059746;28;20047;-66
2022/11/18 02:43:17;;;;;;;53.50;31.73;;;7.40;99.90;;;;;;5056427;28;20131;-66
2022/11/18 02:45:48;;;;;;;67.15;35.15;;;7.40;99.90;;;;;;5058481;28;20029;-67
2022/11/18 02:48:15;;;;;;;55.65;32.20;;;7.40;99.90;;;;;;5057361;28;20558;-67
2022/11/18 02:50:43;;;;;;;64.13;34.08;;;7.40;99.90;;;;;;5062880;28;20033;-67
2022/11/18 02:53:12;;;;;;;74.15;34.92;;;7.40;99.90;;;;;;5058532;28;20405;-66
2022/11/18 02:55:39;;;;;;;59.45;33.42;;;7.30;99.90;;;;;;5060204;28;20044;-67
2022/11/18 02:58:05;;;;;;;73.53;34.67;;;7.30;99.90;;;;;;5057101;28;20500;-66
2022/11/18 03:00:32;;;;;;;54.00;32.00;;;7.30;99.90;;;;;;5045312;28;20064;-67
2022/11/18 03:02:59;;;;;;;70.07;35.10;;;7.30;99.90;;;;;;5041687;28;20487;-67
2022/11/18 03:05:35;;;;;;;59.08;33.10;;;7.30;99.90;;;;;;5060024;28;20124;-67
2022/11/18 03:08:09;;;;;;;57.95;32.22;;;7.30;99.90;;;;;;5059075;28;20122;-66
2022/11/18 03:10:39;;;;;;;;;;;7.30;99.90;;;;;;5040911;28;20043;-67
2022/11/18 03:13:19;;;;;;;48.53;30.95;;;7.30;99.90;;;;;;5058237;28;19964;-67
2022/11/18 03:15:58;;;;;;;50.35;32.47;;;7.30;99.90;;;;;;5058182;28;20036;-65
2022/11/18 03:18:27;;;;;;;59.13;32.28;;;7.30;99.90;;;;;;5058998;28;20036;-66
2022/11/18 03:21:02;;;;;;;60.80;32.70;;;7.20;99.90;;;;;;5056982;28;20033;-66
2022/11/18 03:23:43;;;;;;;58.22;32.05;;;7.20;99.90;;;;;;5056439;28;20037;-66
2022/11/18 03:26:19;;;;;;;47.60;30.52;;;7.20;99.90;;;;;;5054117;28;20507;-66
2022/11/18 03:29:08;;;;;;;51.80;31.42;;;7.20;99.90;;;;;;5057449;28;20063;-67
2022/11/18 03:31:42;;;;;;;48.72;29.02;;;7.30;99.90;;;;;;5059715;28;20063;-66
2022/11/18 03:34:23;;;;;;;56.60;32.05;;;7.30;99.90;;;;;;5040949;28;20144;-66
2022/11/18 03:36:55;;;;;;;43.60;29.42;;;7.20;99.90;;;;;;5059181;28;20036;-66
2022/11/18 03:39:23;;;;;;;51.65;31.17;;;7.30;99.90;;;;;;5052757;28;20478;-66
2022/11/18 03:41:55;;;;;;;55.17;31.83;;;7.30;99.90;;;;;;5056690;28;20052;-66
2022/11/18 03:44:35;;;;;;;58.13;30.70;;;7.20;99.90;;;;;;5055850;28;20430;-67
2022/11/18 03:47:08;;;;;;;51.38;31.38;;;7.20;99.90;;;;;;5058050;28;20033;-66
2022/11/18 03:49:51;;;;;;;51.67;30.52;;;7.20;99.90;;;;;;5059805;28;20036;-66
2022/11/18 03:52:28;;;;;;;42.85;29.02;;;7.30;99.90;;;;;;5061684;28;20033;-66
2022/11/18 03:54:57;;;;;;;54.63;31.83;;;7.30;99.90;;;;;;5061551;28;20552;-66
2022/11/18 03:57:42;;;;;;;47.70;29.88;;;7.30;99.90;;;;;;5050890;28;20053;-67
2022/11/18 04:00:10;;;;;;;49.40;29.98;;;7.30;99.90;;;;;;5065513;28;20072;-67
2022/11/18 04:02:37;;;;;;;46.67;30.35;;;7.30;99.90;;;;;;5066250;28;20040;-66
2022/11/18 04:05:06;;;;;;;56.38;31.20;;;7.20;99.90;;;;;;5063836;28;20049;-66
2022/11/18 04:07:52;;;;;;;55.50;32.30;;;7.20;99.90;;;;;;5064087;28;20032;-66
2022/11/18 04:10:25;;;;;;;51.10;32.08;;;7.30;99.90;;;;;;5063188;28;20271;-66
2022/11/18 04:13:31;;;;;;;52.75;32.22;;;7.30;99.90;;;;;;5062578;28;20037;-66
2022/11/18 04:15:57;;;;;;;52.70;31.58;;;7.20;99.90;;;;;;5049761;28;20048;-66
2022/11/18 04:18:23;;;;;;;51.22;32.50;;;7.30;99.90;;;;;;5063769;28;20116;-66
2022/11/18 04:20:49;;;;;;;47.92;31.80;;;7.20;99.90;;;;;;5060361;28;20043;-66
2022/11/18 04:23:14;;;;;;;49.50;30.50;;;7.30;99.90;;;;;;5063146;28;20467;-65
2022/11/18 04:25:40;;;;;;;44.03;30.15;;;7.20;99.90;;;;;;5041100;28;20050;-65
2022/11/18 04:28:06;;;;;;;45.80;30.42;;;7.20;99.90;;;;;;5068423;28;20083;-66
2022/11/18 04:30:32;;;;;;;48.88;30.38;;;7.20;99.90;;;;;;5060611;28;20051;-65
2022/11/18 04:32:58;;;;;;;40.80;29.55;;;7.20;99.90;;;;;;5065314;28;20056;-65
2022/11/18 04:35:24;;;;;;;52.75;31.45;;;7.20;99.90;;;;;;5059330;28;20104;-65
2022/11/18 04:37:50;;;;;;;48.88;30.48;;;7.20;99.90;;;;;;5063226;28;20348;-65
2022/11/18 04:40:16;;;;;;;49.30;31.20;;;7.20;99.90;;;;;;5061384;28;20083;-65
2022/11/18 04:42:42;;;;;;;48.83;31.08;;;7.20;99.90;;;;;;5061373;28;20025;-65
2022/11/18 04:45:08;;;;;;;39.97;27.35;;;7.20;99.90;;;;;;5058468;28;20102;-65
2022/11/18 04:47:34;;;;;;;45.10;30.27;;;7.20;99.90;;;;;;5061280;28;20086;-65
2022/11/18 04:50:00;;;;;;;49.67;31.17;;;7.20;99.90;;;;;;5064222;28;20060;-65
2022/11/18 04:52:26;;;;;;;42.25;27.98;;;7.20;99.90;;;;;;5057661;28;20090;-66
2022/11/18 04:54:51;;;;;;;48.10;29.50;;;7.20;99.90;;;;;;5063186;28;20178;-65
2022/11/18 04:57:17;;;;;;;47.75;29.65;;;7.20;99.90;;;;;;5061797;28;20048;-65
2022/11/18 04:59:43;;;;;;;51.45;30.38;;;7.10;99.90;;;;;;5063124;28;20079;-65
2022/11/18 05:02:08;;;;;;;54.83;30.27;;;7.20;99.90;;;;;;5059282;28;20043;-65
2022/11/18 05:04:34;;;;;;;40.58;28.13;;;7.10;99.90;;;;;;5064489;28;20045;-65
2022/11/18 05:07:02;;;;;;;43.47;28.55;;;7.10;99.90;;;;;;5059823;28;20404;-65
2022/11/18 05:09:28;;;;;;;52.40;30.20;;;7.20;99.90;;;;;;5065345;28;20025;-65
2022/11/18 05:14:38;;;;;;;47.50;29.40;;;7.10;99.90;;;;;;5058769;28;20095;-65
2022/11/18 05:17:06;;;;;;;41.20;26.85;;;7.10;99.90;;;;;;5041559;28;20782;-64
2022/11/18 05:19:32;;;;;;;45.72;28.25;;;7.10;99.90;;;;;;5065505;28;20063;-65
2022/11/18 05:21:59;;;;;;;45.58;29.50;;;7.10;99.90;;;;;;5058721;28;20075;-64
2022/11/18 05:24:25;;;;;;;43.92;28.35;;;7.00;99.90;;;;;;5059866;28;20047;-65
2022/11/18 05:26:52;;;;;;;44.65;29.38;;;7.00;99.90;;;;;;5059729;28;20029;-65
2022/11/18 05:29:19;;;;;;;50.70;28.70;;;7.00;99.90;;;;;;5061493;28;20439;-65
2022/11/18 05:31:46;;;;;;;46.75;29.23;;;7.00;99.90;;;;;;5055619;28;20037;-64
2022/11/18 05:34:13;;;;;;;55.50;30.33;;;7.00;99.90;;;;;;5057675;28;20040;-65
2022/11/18 05:36:39;;;;;;;54.95;30.88;;;7.00;99.90;;;;;;5060964;28;20528;-64
2022/11/18 05:39:05;;;;;;;49.40;28.17;;;7.10;99.90;;;;;;5059656;28;20075;-64
2022/11/18 05:44:15;;;;;;;46.67;27.48;;;7.00;99.90;;;;;;5057509;28;20544;-65
2022/11/18 05:46:41;;;;;;;57.15;30.25;;;7.00;99.90;;;;;;5059207;28;20032;-66
2022/11/18 05:49:07;;;;;;;42.20;26.50;;;7.00;99.90;;;;;;5060772;28;20457;-65
2022/11/18 05:51:33;;;;;;;38.70;26.63;;;7.10;99.90;;;;;;5059122;28;20049;-65
2022/11/18 05:54:03;;;;;;;47.15;27.48;;;7.10;99.90;;;;;;5061233;28;20052;-64
2022/11/18 05:56:40;;;;;;;51.38;29.23;;;7.10;99.90;;;;;;5060477;28;20071;-65
2022/11/18 05:59:06;;;;;;;51.08;28.88;;;7.00;99.90;;;;;;5062201;28;20511;-65
2022/11/18 06:01:38;;;;;;;43.05;26.95;;;7.00;99.90;;;;;;5057350;28;20062;-65
2022/11/18 06:04:10;;;;;;;45.08;27.83;;;7.00;99.90;;;;;;5059288;28;20067;-65
2022/11/18 06:06:36;;;;;;;45.78;25.45;;;7.00;99.90;;;;;;5044895;28;20040;-64
2022/11/18 06:09:04;;;;;;;51.00;28.45;;;7.00;99.90;;;;;;5055017;28;20476;-65
2022/11/18 06:11:37;;;;;;;44.83;26.35;;;7.00;99.90;;;;;;5065733;28;20071;-64
2022/11/18 06:14:14;;;;;;;48.45;27.45;;;7.10;99.90;;;;;;5058564;28;20528;-65
2022/11/18 06:16:43;;;;;;;49.38;28.35;;;7.00;99.90;;;;;;5057835;28;20109;-65
2022/11/18 06:19:09;;;;;;;46.13;27.95;;;7.00;99.90;;;;;;5057607;28;20044;-66
2022/11/18 06:21:36;;;;;;;41.28;26.40;;;7.00;99.90;;;;;;5043970;28;20044;-66
2022/11/18 06:24:02;;;;;;;45.28;28.23;;;7.00;99.90;;;;;;5062957;28;20072;-64
2022/11/18 06:26:28;;;;;;;47.72;27.77;;;6.90;99.90;;;;;;5059145;28;20055;-66
2022/11/18 06:28:55;;;;;;;51.85;27.88;;;7.00;99.90;;;;;;5060617;28;20041;-65
2022/11/18 06:31:21;;;;;;;57.70;28.52;;;6.90;99.90;;;;;;5058398;28;20033;-64
2022/11/18 06:33:46;;;;;;;51.28;28.58;;;6.90;99.90;;;;;;5059741;28;20033;-64
2022/11/18 06:36:12;;;;;;;54.78;28.17;;;6.90;99.90;;;;;;5035970;28;20086;-65
2022/11/18 06:38:38;;;;;;;42.38;26.42;;;6.90;99.90;;;;;;5061380;28;20052;-65
2022/11/18 06:41:03;;;;;;;52.10;28.13;;;6.90;99.90;;;;;;5055876;28;20480;-65
2022/11/18 06:43:40;;;;;;;50.47;26.95;;;6.90;99.90;;;;;;5060111;28;20470;-65
2022/11/18 06:48:56;;;;;;;46.83;27.17;;;6.90;99.90;;;;;;5057887;28;20495;-65
2022/11/18 06:51:22;;;;;;;43.38;26.55;;;6.90;99.90;;;;;;5057840;28;20076;-65
2022/11/18 06:53:48;;;;;;;50.85;28.58;;;6.80;99.90;;;;;;5061763;28;20032;-66
2022/11/18 06:56:15;;;;;;;47.35;27.10;;;6.90;99.90;;;;;;5052426;28;20056;-64
2022/11/18 06:58:41;;;;;;;42.30;26.13;;;6.90;99.90;;;;;;5054550;28;20131;-65
2022/11/18 07:01:15;;;;;;;42.58;24.88;;;6.80;99.90;;;;;;5050708;28;20417;-64
2022/11/18 07:03:43;;;;;;;33.22;22.40;;;6.90;99.90;;;;;;5056776;28;20128;-66
2022/11/18 07:06:10;;;;;;;39.10;22.98;;;6.80;99.90;;;;;;5059473;28;20084;-65
2022/11/18 07:08:37;;;;;;;29.95;20.67;;;6.90;99.90;;;;;;5054071;28;20437;-65
2022/11/18 07:11:05;;;;;;;32.67;20.27;;;6.80;99.90;;;;;;5056253;28;20033;-65
2022/11/18 07:13:32;;;;;;;30.38;19.63;;;6.80;99.90;;;;;;5057557;28;20041;-65
2022/11/18 07:16:15;;;;;;;27.75;18.25;;;6.80;99.90;;;;;;5053189;28;20032;-65
2022/11/18 07:18:41;;;;;;;29.58;17.42;;;6.80;99.90;;;;;;5059074;28;20044;-66
2022/11/18 07:21:18;;;;;;;29.40;18.30;;;6.70;99.90;;;;;;5043701;28;20036;-66
2022/11/18 07:23:45;;;;;;;31.35;18.90;;;6.80;99.90;;;;;;5064147;28;20396;-66
2022/11/18 07:26:12;;;;;;;34.92;20.23;;;6.70;99.90;;;;;;5056976;28;20040;-67
2022/11/18 07:28:38;;;;;;;31.73;19.75;;;6.70;99.90;;;;;;5063151;28;20119;-66
2022/11/18 07:31:18;;;;;;;38.70;20.13;;;6.70;99.90;;;;;;5059759;28;20455;-67
2022/11/18 07:33:45;;;;;;;33.72;19.70;;;6.70;99.90;;;;;;5062508;28;20059;-67
2022/11/18 07:36:16;;;;;;;37.25;20.52;;;6.70;99.90;;;;;;5057962;28;20048;-68
2022/11/18 07:38:43;;;;;;;33.67;19.55;;;6.70;99.90;;;;;;5067643;28;20400;-67
2022/11/18 07:41:11;;;;;;;40.55;20.85;;;6.60;99.90;;;;;;5034589;28;20779;-67
2022/11/18 07:43:38;;;;;;;43.00;20.45;;;6.60;99.90;;;;;;5061437;28;20040;-67
2022/11/18 07:46:23;;;;;;;41.95;21.58;;;6.60;99.90;;;;;;5056464;28;20041;-67
2022/11/18 07:48:51;;;;;;;34.55;20.70;;;6.70;99.90;;;;;;5062369;28;20433;-66
2022/11/18 07:51:18;;;;;;;30.42;18.77;;;6.60;99.90;;;;;;5061740;28;20036;-67
2022/11/18 07:53:45;;;;;;;29.85;17.58;;;6.60;99.90;;;;;;5051598;28;20048;-67
2022/11/18 07:56:13;;;;;;;32.50;17.85;;;6.70;99.90;;;;;;5038958;28;20057;-67
2022/11/18 07:58:39;;;;;;;25.73;16.65;;;6.70;99.90;;;;;;5041831;28;20084;-67
2022/11/18 08:01:09;;;;;;;28.15;16.35;;;6.60;99.90;;;;;;5043890;28;20068;-67
2022/11/18 08:03:36;;;;;;;33.20;16.45;;;6.70;99.90;;;;;;5036331;28;20456;-67
2022/11/18 08:06:03;;;;;;;32.08;17.50;;;6.70;99.90;;;;;;5040189;28;20045;-68
2022/11/18 08:08:29;;;;;;;28.77;18.70;;;6.60;99.90;;;;;;5037515;28;20120;-67
2022/11/18 08:10:56;;;;;;;29.70;18.02;;;6.60;99.90;;;;;;5041741;28;20104;-68
2022/11/18 08:13:22;;;;;;;31.60;18.33;;;6.60;99.90;;;;;;5036699;28;20057;-67
2022/11/18 08:15:48;;;;;;;31.05;16.58;;;6.60;99.90;;;;;;5055701;28;20420;-67
2022/11/18 08:18:13;;;;;;;38.53;19.30;;;6.60;99.90;;;;;;5040529;28;20045;-67
2022/11/18 08:20:39;;;;;;;39.58;20.33;;;6.60;99.90;;;;;;5041003;28;20041;-68
2022/11/18 08:23:05;;;;;;;37.28;19.70;;;6.50;99.90;;;;;;5037779;28;20110;-67
2022/11/18 08:25:30;;;;;;;34.90;18.65;;;6.50;99.90;;;;;;5039930;28;20032;-67
2022/11/18 08:27:56;;;;;;;40.58;19.63;;;6.60;99.90;;;;;;5040553;28;20103;-68
2022/11/18 08:30:22;;;;;;;33.95;18.70;;;6.60;99.90;;;;;;5037944;28;20049;-66
2022/11/18 08:32:47;;;;;;;31.90;18.58;;;6.60;99.90;;;;;;5041411;28;20038;-67
2022/11/18 08:35:13;;;;;;;33.25;17.80;;;6.70;99.90;;;;;;5039034;28;20132;-67
2022/11/18 08:37:39;;;;;;;32.08;17.55;;;6.60;99.90;;;;;;5042113;28;20083;-67
2022/11/18 08:40:05;;;;;;;35.63;18.13;;;6.70;99.90;;;;;;5037355;28;20130;-67
2022/11/18 08:42:31;;;;;;;30.23;16.52;;;6.60;99.90;;;;;;5043523;28;20459;-66
2022/11/18 08:44:57;;;;;;;30.77;15.95;;;6.60;99.90;;;;;;5040738;28;20045;-67
2022/11/18 08:47:23;;;;;;;25.25;15.23;;;6.60;99.90;;;;;;5040180;28;20069;-67
2022/11/18 08:49:48;;;;;;;24.27;15.48;;;6.60;99.90;;;;;;5044239;28;20068;-67
2022/11/18 08:52:14;;;;;;;26.58;14.90;;;6.60;99.90;;;;;;5038191;28;20079;-67
2022/11/18 08:54:40;;;;;;;24.52;16.10;;;6.70;99.90;;;;;;5039324;28;20249;-67
2022/11/18 08:57:05;;;;;;;23.95;14.93;;;6.70;99.90;;;;;;5054654;28;20060;-66
2022/11/18 08:59:31;;;;;;;30.58;15.73;;;6.60;99.90;;;;;;5047221;28;20044;-66
2022/11/18 09:01:57;;;;;;;22.20;15.02;;;6.60;99.90;;;;;;5061619;28;20038;-67
2022/11/18 09:04:23;;;;;;;26.58;14.73;;;6.60;99.90;;;;;;5039492;28;20127;-67
2022/11/18 09:06:48;;;;;;;27.08;16.55;;;6.60;99.90;;;;;;5046596;28;20777;-67
2022/11/18 09:09:14;;;;;;;33.45;16.75;;;6.60;99.90;;;;;;5057792;28;20044;-67
2022/11/18 09:11:41;;;;;;;33.03;16.67;;;6.60;99.90;;;;;;5065660;28;20029;-67
2022/11/18 09:14:09;;;;;;;32.45;16.33;;;6.60;99.90;;;;;;5060953;28;20033;-67
2022/11/18 09:16:35;;;;;;;22.52;15.23;;;6.50;99.90;;;;;;5057417;28;20028;-67
2022/11/18 09:19:01;;;;;;;26.52;15.02;;;6.60;99.90;;;;;;5048479;28;20506;-66
2022/11/18 09:21:27;;;;;;;26.77;15.13;;;6.50;99.90;;;;;;5055668;28;20377;-67
2022/11/18 09:23:53;;;;;;;25.60;15.05;;;6.60;99.90;;;;;;5059529;28;20037;-67
2022/11/18 09:26:21;;;;;;;23.08;15.00;;;6.60;99.90;;;;;;5042404;28;20040;-67
2022/11/18 09:28:47;;;;;;;22.83;15.10;;;6.60;99.90;;;;;;5061857;28;20033;-66
2022/11/18 09:31:16;;;;;;;27.20;15.75;;;6.50;99.90;;;;;;5059166;28;20039;-67
2022/11/18 09:33:42;;;;;;;28.83;16.42;;;6.60;99.90;;;;;;5059279;28;20100;-67
2022/11/18 09:36:22;;;;;;;34.00;17.33;;;6.60;99.90;;;;;;5060851;28;20037;-67
2022/11/18 09:38:49;;;;;;;26.40;16.80;;;6.60;99.90;;;;;;5062224;28;20033;-67
2022/11/18 09:41:46;;;;;;;27.85;16.90;;;6.60;99.90;;;;;;5058315;28;20059;-67
2022/11/18 09:44:21;;;;;;;26.20;16.55;;;6.60;99.90;;;;;;5044916;28;20036;-67
2022/11/18 09:46:58;;;;;;;31.55;18.20;;;6.60;99.90;;;;;;5059721;28;20040;-67
2022/11/18 09:49:29;;;;;;;26.45;16.65;;;6.60;99.90;;;;;;5056756;28;20535;-67
2022/11/18 09:51:56;;;;;;;26.65;17.23;;;6.50;99.90;;;;;;5055913;28;20468;-68
2022/11/18 09:54:35;;;;;;;24.67;17.83;;;6.60;99.90;;;;;;5059618;28;20852;-67
2022/11/18 09:57:02;;;;;;;22.13;15.43;;;6.50;99.90;;;;;;5064978;28;20060;-68
2022/11/18 09:59:30;;;;;;;20.25;15.57;;;6.50;99.90;;;;;;5060706;28;20137;-67
2022/11/18 10:02:16;;;;;;;27.75;15.93;;;6.50;99.90;;;;;;5045965;28;20522;-67
2022/11/18 10:04:42;;;;;;;23.63;14.70;;;6.50;99.90;;;;;;5036005;28;20049;-67
2022/11/18 10:07:21;;;;;;;26.63;16.38;;;6.50;99.90;;;;;;5052395;28;20067;-67
2022/11/18 10:09:48;;;;;;;25.40;15.52;;;6.50;99.90;;;;;;5057492;28;20041;-67
2022/11/18 10:12:51;;;;;;;25.13;17.17;;;6.50;99.90;;;;;;5056959;28;20504;-67
2022/11/18 10:15:42;;;;;;;24.00;14.88;;;6.50;99.90;;;;;;5045210;28;20071;-68
2022/11/18 10:18:33;;;;;;;25.27;15.40;;;6.50;99.90;;;;;;5047729;28;20070;-67
2022/11/18 10:21:12;;;;;;;24.00;15.07;;;6.40;99.90;;;;;;5052783;28;20419;-67
2022/11/18 10:23:52;;;;;;;23.20;13.82;;;6.40;99.90;;;;;;5048441;28;20476;-67
2022/11/18 10:26:39;;;;;;;21.33;13.73;;;6.50;99.90;;;;;;5056323;28;20052;-67
2022/11/18 10:29:09;;;;;;;21.67;14.02;;;6.50;99.90;;;;;;5058343;28;20041;-67
2022/11/18 10:32:05;;;;;;;20.55;14.15;;;6.50;99.90;;;;;;5046837;28;20045;-67
2022/11/18 10:34:31;;;;;;;;;;;6.60;99.90;;;;;;5022449;28;20098;-67
2022/11/18 10:37:01;;;;;;;21.15;12.88;;;6.50;99.90;;;;;;5049626;28;19920;-65
2022/11/18 10:39:27;;;;;;;18.40;13.05;;;6.60;99.90;;;;;;5047183;28;20521;-66
2022/11/18 10:41:59;;;;;;;20.88;14.48;;;6.70;99.90;;;;;;5058474;28;20028;-64
2022/11/18 10:44:30;;;;;;;18.15;13.73;;;6.70;99.90;;;;;;5061540;28;20118;-64
2022/11/18 10:47:13;;;;;;;18.17;13.82;;;6.60;99.90;;;;;;5050030;28;21159;-64
2022/11/18 10:49:39;;;;;;;20.35;13.60;;;6.70;99.90;;;;;;5048298;28;20818;-64
2022/11/18 10:52:13;;;;;;;18.60;13.10;;;6.60;99.90;;;;;;5043965;28;20047;-66
2022/11/18 10:54:40;;;;;;;21.83;13.60;;;6.60;99.90;;;;;;5045851;28;20040;-66
2022/11/18 10:57:12;;;;;;;20.90;15.10;;;6.70;99.90;;;;;;5047518;28;20063;-67
2022/11/18 10:59:45;;;;;;;21.25;14.55;;;6.60;99.90;;;;;;5035648;28;20135;-65
2022/11/18 11:02:20;;;;;;;22.20;13.80;;;6.60;99.90;;;;;;5044126;28;20147;-66
2022/11/18 11:04:47;;;;;;;;;;;6.60;99.90;;;;;;5043810;28;20481;-65
2022/11/18 11:07:33;;;;;;;16.52;12.38;;;6.50;99.90;;;;;;5059574;28;19940;-66
2022/11/18 11:10:07;;;;;;;18.17;13.15;;;6.50;99.90;;;;;;5057180;28;20132;-66
2022/11/18 11:12:45;;;;;;;19.42;12.57;;;6.50;99.90;;;;;;5060764;28;20507;-65
2022/11/18 11:15:27;;;;;;;15.15;11.98;;;6.50;99.90;;;;;;5037475;28;20047;-66
2022/11/18 11:20:44;;;;;;;15.43;10.75;;;6.50;99.90;;;;;;5052804;28;20535;-66
2022/11/18 11:23:14;;;;;;;15.23;11.65;;;6.50;99.90;;;;;;5051222;28;20037;-66
2022/11/18 11:26:08;;;;;;;17.52;11.23;;;6.50;99.90;;;;;;5058100;28;20112;-66
2022/11/18 11:29:04;;;;;;;14.98;11.88;;;6.40;99.90;;;;;;5050000;28;20178;-66
2022/11/18 11:31:33;;;;;;;14.13;11.82;;;6.40;99.90;;;;;;5060303;28;20033;-65
2022/11/18 11:34:24;;;;;;;15.90;11.60;;;6.40;99.90;;;;;;5035865;28;20390;-66
2022/11/18 11:36:59;;;;;;;14.90;11.48;;;6.40;99.90;;;;;;5044661;28;20044;-66
2022/11/18 11:39:53;;;;;;;16.17;12.23;;;6.30;99.90;;;;;;5056650;28;20072;-65
2022/11/18 11:42:40;;;;;;;15.65;11.88;;;6.40;99.90;;;;;;5055313;28;20509;-65
2022/11/18 11:45:27;;;;;;;15.50;12.25;;;6.50;99.90;;;;;;5052411;28;20080;-65
2022/11/18 11:48:11;;;;;;;19.30;13.50;;;6.50;99.90;;;;;;5056402;28;20032;-65
2022/11/18 11:50:54;;;;;;;19.63;13.55;;;6.50;99.90;;;;;;5057246;28;20083;-65
2022/11/18 11:53:41;;;;;;;15.70;12.40;;;6.50;99.90;;;;;;5053084;28;20102;-66
2022/11/18 11:56:35;;;;;;;17.35;13.30;;;6.40;99.90;;;;;;5054174;28;20051;-65
2022/11/18 11:59:23;;;;;;;19.33;12.82;;;6.40;99.90;;;;;;5039159;28;20044;-65
2022/11/18 12:02:03;;;;;;;14.38;11.70;;;6.30;99.90;;;;;;5057502;28;20123;-65
2022/11/18 12:04:51;;;;;;;13.85;11.13;;;6.30;99.90;;;;;;5036143;28;20047;-65
2022/11/18 12:07:28;;;;;;;16.95;12.23;;;6.30;99.90;;;;;;5057821;28;20045;-65
2022/11/18 12:10:03;;;;;;;12.73;10.63;;;6.30;99.90;;;;;;5059514;28;20045;-66
2022/11/18 12:12:45;;;;;;;13.00;9.98;;;6.30;99.90;;;;;;5058323;28;20127;-65
2022/11/18 12:15:16;;;;;;;14.52;10.45;;;6.20;99.90;;;;;;5060973;28;20048;-65
2022/11/18 12:17:58;;;;;;;13.77;10.50;;;6.20;99.90;;;;;;5059304;28;20033;-66
2022/11/18 12:20:36;;;;;;;12.40;9.98;;;6.20;99.90;;;;;;5057724;28;20476;-65
2022/11/18 12:23:20;;;;;;;11.82;9.75;;;6.10;99.90;;;;;;5058513;28;20033;-65
2022/11/18 12:25:49;;;;;;;13.05;9.30;;;6.00;99.90;;;;;;5061622;28;20199;-65
2022/11/18 12:28:25;;;;;;;11.48;8.60;;;6.00;99.90;;;;;;5061124;28;20040;-65
2022/11/18 12:31:22;;;;;;;10.90;8.15;;;6.10;99.90;;;;;;5057339;28;20041;-65
2022/11/18 12:33:55;;;;;;;10.38;8.63;;;6.00;99.90;;;;;;5058404;28;20044;-65
2022/11/18 12:36:33;;;;;;;12.15;9.95;;;6.00;99.90;;;;;;5043980;28;20138;-65
2022/11/18 12:39:25;;;;;;;11.15;9.02;;;6.00;99.90;;;;;;5064574;28;20456;-65
2022/11/18 12:44:47;;;;;;;10.48;8.13;;;6.00;99.90;;;;;;5063958;28;20400;-65
2022/11/18 12:47:35;;;;;;;11.75;8.65;;;5.90;99.90;;;;;;5059232;28;20097;-64
2022/11/18 12:50:01;;;;;;;11.93;9.20;;;5.80;99.90;;;;;;5060945;28;20039;-64
2022/11/18 12:52:29;;;;;;;12.55;8.93;;;5.90;99.90;;;;;;5060280;28;20045;-64
2022/11/18 12:55:14;;;;;;;14.07;10.10;;;5.80;99.90;;;;;;5061734;28;20449;-65
2022/11/18 12:57:40;;;;;;;13.70;10.40;;;5.80;99.90;;;;;;5062040;28;20056;-64
2022/11/18 13:00:29;;;;;;;14.43;10.88;;;5.80;99.90;;;;;;5061282;28;20036;-64
2022/11/18 13:03:00;;;;;;;16.30;11.65;;;5.70;99.90;;;;;;5058037;28;20138;-64
2022/11/18 13:05:32;;;;;;;14.85;11.45;;;5.70;99.90;;;;;;5061726;28;20440;-64
2022/11/18 13:08:13;;;;;;;15.30;11.23;;;5.70;99.90;;;;;;5059055;28;20052;-64
2022/11/18 13:19:26;;;;;;;15.02;11.60;;;5.60;99.90;;;;;;5059204;28;20051;-65
2022/11/18 13:24:51;;;;;;;18.77;12.32;;;5.60;99.90;;;;;;5024789;28;20183;-63
2022/11/18 13:27:48;;;;;;;16.27;12.13;;;5.50;99.90;;;;;;5061086;28;20404;-63
2022/11/18 13:30:15;;;;;;;20.35;13.35;;;5.50;99.90;;;;;;5061624;28;20059;-64
2022/11/18 13:32:46;;;;;;;19.77;13.73;;;5.40;99.90;;;;;;5060592;28;20033;-64